sensor_id;sensor_type;location;lat;lon;timestamp;P1;durP1;ratioP1;P2;durP2;ratioP2
11191;SDS011;5652;48.406;10.820;2023-04-29T00:00:52;0.10;;;0.10;;
11191;SDS011;5652;48.406;10.820;2023-04-29T00:03:20;0.30;;;0.30;;
11191;SDS011;5652;48.406;10.820;2023-04-29T00:05:47;0.20;;;0.20;;
11191;SDS011;5652;48.406;10.820;2023-04-29T00:08:14;0.70;;;0.45;;
11191;SDS011;5652;48.406;10.820;2023-04-29T00:10:41;0.20;;;0.20;;
11191;SDS011;5652;48.406;10.820;2023-04-29T00:13:09;0.20;;;0.20;;
11191;SDS011;5652;48.406;10.820;2023-04-29T00:15:37;0.20;;;0.20;;
11191;SDS011;5652;48.406;10.820;2023-04-29T00:18:04;0.10;;;0.10;;
11191;SDS011;5652;48.406;10.820;2023-04-29T00:20:31;0.40;;;0.40;;
11191;SDS011;5652;48.406;10.820;2023-04-29T00:22:58;0.30;;;0.30;;
11191;SDS011;5652;48.406;10.820;2023-04-29T00:25:25;0.30;;;0.30;;
11191;SDS011;5652;48.406;10.820;2023-04-29T00:27:52;0.30;;;0.30;;
11191;SDS011;5652;48.406;10.820;2023-04-29T00:30:21;0.25;;;0.25;;
11191;SDS011;5652;48.406;10.820;2023-04-29T00:32:48;0.20;;;0.20;;
11191;SDS011;5652;48.406;10.820;2023-04-29T00:35:15;0.30;;;0.30;;
11191;SDS011;5652;48.406;10.820;2023-04-29T00:37:42;0.23;;;0.23;;
11191;SDS011;5652;48.406;10.820;2023-04-29T00:40:10;0.38;;;0.38;;
11191;SDS011;5652;48.406;10.820;2023-04-29T00:42:39;0.30;;;0.30;;
11191;SDS011;5652;48.406;10.820;2023-04-29T00:45:07;0.60;;;0.60;;
11191;SDS011;5652;48.406;10.820;2023-04-29T00:47:35;0.30;;;0.30;;
11191;SDS011;5652;48.406;10.820;2023-04-29T00:50:02;0.30;;;0.30;;
11191;SDS011;5652;48.406;10.820;2023-04-29T00:52:30;0.40;;;0.40;;
11191;SDS011;5652;48.406;10.820;2023-04-29T00:54:57;2.60;;;2.40;;
11191;SDS011;5652;48.406;10.820;2023-04-29T00:57:25;0.30;;;0.30;;
11191;SDS011;5652;48.406;10.820;2023-04-29T00:59:53;0.22;;;0.22;;
11191;SDS011;5652;48.406;10.820;2023-04-29T01:02:20;0.50;;;0.50;;
11191;SDS011;5652;48.406;10.820;2023-04-29T01:04:48;0.25;;;0.25;;
11191;SDS011;5652;48.406;10.820;2023-04-29T01:07:16;0.35;;;0.35;;
11191;SDS011;5652;48.406;10.820;2023-04-29T01:09:49;0.30;;;0.30;;
11191;SDS011;5652;48.406;10.820;2023-04-29T01:12:20;0.38;;;0.38;;
11191;SDS011;5652;48.406;10.820;2023-04-29T01:14:50;0.37;;;0.37;;
11191;SDS011;5652;48.406;10.820;2023-04-29T01:17:22;0.90;;;0.90;;
11191;SDS011;5652;48.406;10.820;2023-04-29T01:19:53;0.20;;;0.20;;
11191;SDS011;5652;48.406;10.820;2023-04-29T01:22:21;0.50;;;0.50;;
11191;SDS011;5652;48.406;10.820;2023-04-29T01:24:49;0.40;;;0.40;;
11191;SDS011;5652;48.406;10.820;2023-04-29T01:27:20;0.50;;;0.50;;
11191;SDS011;5652;48.406;10.820;2023-04-29T01:29:50;0.57;;;0.57;;
11191;SDS011;5652;48.406;10.820;2023-04-29T01:32:22;0.45;;;0.45;;
11191;SDS011;5652;48.406;10.820;2023-04-29T01:34:54;0.47;;;0.47;;
11191;SDS011;5652;48.406;10.820;2023-04-29T01:37:25;0.20;;;0.20;;
11191;SDS011;5652;48.406;10.820;2023-04-29T01:39:56;0.40;;;0.40;;
11191;SDS011;5652;48.406;10.820;2023-04-29T01:42:28;0.40;;;0.40;;
11191;SDS011;5652;48.406;10.820;2023-04-29T01:45:00;0.40;;;0.40;;
11191;SDS011;5652;48.406;10.820;2023-04-29T01:47:30;0.30;;;0.30;;
11191;SDS011;5652;48.406;10.820;2023-04-29T01:49:58;0.50;;;0.50;;
11191;SDS011;5652;48.406;10.820;2023-04-29T01:52:26;0.40;;;0.40;;
11191;SDS011;5652;48.406;10.820;2023-04-29T01:54:53;0.30;;;0.30;;
11191;SDS011;5652;48.406;10.820;2023-04-29T01:57:22;0.60;;;0.60;;
11191;SDS011;5652;48.406;10.820;2023-04-29T01:59:49;0.50;;;0.50;;
11191;SDS011;5652;48.406;10.820;2023-04-29T02:02:17;0.30;;;0.30;;
11191;SDS011;5652;48.406;10.820;2023-04-29T02:04:45;0.55;;;0.52;;
11191;SDS011;5652;48.406;10.820;2023-04-29T02:07:13;0.40;;;0.40;;
11191;SDS011;5652;48.406;10.820;2023-04-29T02:09:40;0.60;;;0.60;;
11191;SDS011;5652;48.406;10.820;2023-04-29T02:12:08;0.30;;;0.30;;
11191;SDS011;5652;48.406;10.820;2023-04-29T02:14:36;0.40;;;0.40;;
11191;SDS011;5652;48.406;10.820;2023-04-29T02:17:03;0.50;;;0.50;;
11191;SDS011;5652;48.406;10.820;2023-04-29T02:19:31;0.43;;;0.43;;
11191;SDS011;5652;48.406;10.820;2023-04-29T02:21:58;0.28;;;0.28;;
11191;SDS011;5652;48.406;10.820;2023-04-29T02:24:25;0.30;;;0.30;;
11191;SDS011;5652;48.406;10.820;2023-04-29T02:26:52;0.55;;;0.55;;
11191;SDS011;5652;48.406;10.820;2023-04-29T02:29:20;0.75;;;0.75;;
11191;SDS011;5652;48.406;10.820;2023-04-29T02:31:48;0.43;;;0.43;;
11191;SDS011;5652;48.406;10.820;2023-04-29T02:34:15;0.30;;;0.30;;
11191;SDS011;5652;48.406;10.820;2023-04-29T02:36:42;0.30;;;0.30;;
11191;SDS011;5652;48.406;10.820;2023-04-29T02:39:10;0.30;;;0.30;;
11191;SDS011;5652;48.406;10.820;2023-04-29T02:41:37;0.30;;;0.30;;
11191;SDS011;5652;48.406;10.820;2023-04-29T02:44:04;0.30;;;0.30;;
11191;SDS011;5652;48.406;10.820;2023-04-29T02:46:31;0.30;;;0.30;;
11191;SDS011;5652;48.406;10.820;2023-04-29T02:49:01;0.30;;;0.30;;
11191;SDS011;5652;48.406;10.820;2023-04-29T02:51:29;0.30;;;0.30;;
11191;SDS011;5652;48.406;10.820;2023-04-29T02:53:56;0.30;;;0.30;;
11191;SDS011;5652;48.406;10.820;2023-04-29T02:56:23;0.60;;;0.60;;
11191;SDS011;5652;48.406;10.820;2023-04-29T02:58:50;0.30;;;0.30;;
11191;SDS011;5652;48.406;10.820;2023-04-29T03:01:17;0.50;;;0.50;;
11191;SDS011;5652;48.406;10.820;2023-04-29T03:03:45;0.20;;;0.20;;
11191;SDS011;5652;48.406;10.820;2023-04-29T03:06:14;0.40;;;0.40;;
11191;SDS011;5652;48.406;10.820;2023-04-29T03:08:41;0.50;;;0.50;;
11191;SDS011;5652;48.406;10.820;2023-04-29T03:11:08;1.87;;;1.77;;
11191;SDS011;5652;48.406;10.820;2023-04-29T03:13:35;0.30;;;0.30;;
11191;SDS011;5652;48.406;10.820;2023-04-29T03:16:02;0.40;;;0.40;;
11191;SDS011;5652;48.406;10.820;2023-04-29T03:18:30;0.50;;;0.50;;
11191;SDS011;5652;48.406;10.820;2023-04-29T03:20:57;0.40;;;0.40;;
11191;SDS011;5652;48.406;10.820;2023-04-29T03:23:26;0.40;;;0.40;;
11191;SDS011;5652;48.406;10.820;2023-04-29T03:25:53;0.30;;;0.30;;
11191;SDS011;5652;48.406;10.820;2023-04-29T03:28:20;0.30;;;0.30;;
11191;SDS011;5652;48.406;10.820;2023-04-29T03:30:48;0.30;;;0.30;;
11191;SDS011;5652;48.406;10.820;2023-04-29T03:33:15;0.40;;;0.40;;
11191;SDS011;5652;48.406;10.820;2023-04-29T03:35:42;0.40;;;0.40;;
11191;SDS011;5652;48.406;10.820;2023-04-29T03:38:10;0.47;;;0.47;;
11191;SDS011;5652;48.406;10.820;2023-04-29T03:40:38;0.32;;;0.32;;
11191;SDS011;5652;48.406;10.820;2023-04-29T03:43:05;0.30;;;0.30;;
11191;SDS011;5652;48.406;10.820;2023-04-29T03:45:33;0.40;;;0.40;;
11191;SDS011;5652;48.406;10.820;2023-04-29T03:48:00;0.60;;;0.60;;
11191;SDS011;5652;48.406;10.820;2023-04-29T03:50:27;0.25;;;0.25;;
11191;SDS011;5652;48.406;10.820;2023-04-29T03:52:56;0.20;;;0.20;;
11191;SDS011;5652;48.406;10.820;2023-04-29T03:55:23;0.30;;;0.30;;
11191;SDS011;5652;48.406;10.820;2023-04-29T03:57:51;0.30;;;0.30;;
11191;SDS011;5652;48.406;10.820;2023-04-29T04:00:18;0.30;;;0.30;;
11191;SDS011;5652;48.406;10.820;2023-04-29T04:02:46;0.50;;;0.50;;
11191;SDS011;5652;48.406;10.820;2023-04-29T04:05:13;0.25;;;0.25;;
11191;SDS011;5652;48.406;10.820;2023-04-29T04:07:40;0.30;;;0.30;;
11191;SDS011;5652;48.406;10.820;2023-04-29T04:10:07;0.30;;;0.30;;
11191;SDS011;5652;48.406;10.820;2023-04-29T04:12:34;0.40;;;0.40;;
11191;SDS011;5652;48.406;10.820;2023-04-29T04:15:03;0.35;;;0.35;;
11191;SDS011;5652;48.406;10.820;2023-04-29T04:17:30;0.20;;;0.20;;
11191;SDS011;5652;48.406;10.820;2023-04-29T04:19:58;0.38;;;0.38;;
11191;SDS011;5652;48.406;10.820;2023-04-29T04:22:25;0.90;;;0.65;;
11191;SDS011;5652;48.406;10.820;2023-04-29T04:24:53;0.50;;;0.50;;
11191;SDS011;5652;48.406;10.820;2023-04-29T04:27:20;0.30;;;0.30;;
11191;SDS011;5652;48.406;10.820;2023-04-29T04:29:47;0.30;;;0.30;;
11191;SDS011;5652;48.406;10.820;2023-04-29T04:32:15;0.50;;;0.50;;
11191;SDS011;5652;48.406;10.820;2023-04-29T04:34:43;0.43;;;0.43;;
11191;SDS011;5652;48.406;10.820;2023-04-29T04:37:16;0.75;;;0.75;;
11191;SDS011;5652;48.406;10.820;2023-04-29T04:39:43;0.57;;;0.57;;
11191;SDS011;5652;48.406;10.820;2023-04-29T04:42:10;0.22;;;0.22;;
11191;SDS011;5652;48.406;10.820;2023-04-29T04:44:37;0.65;;;0.65;;
11191;SDS011;5652;48.406;10.820;2023-04-29T04:47:04;0.40;;;0.35;;
11191;SDS011;5652;48.406;10.820;2023-04-29T04:49:33;0.20;;;0.20;;
11191;SDS011;5652;48.406;10.820;2023-04-29T04:52:00;0.57;;;0.57;;
11191;SDS011;5652;48.406;10.820;2023-04-29T04:54:27;0.20;;;0.20;;
11191;SDS011;5652;48.406;10.820;2023-04-29T04:56:54;0.50;;;0.50;;
11191;SDS011;5652;48.406;10.820;2023-04-29T04:59:21;0.60;;;0.60;;
11191;SDS011;5652;48.406;10.820;2023-04-29T05:01:48;0.30;;;0.30;;
11191;SDS011;5652;48.406;10.820;2023-04-29T05:04:16;0.80;;;0.80;;
11191;SDS011;5652;48.406;10.820;2023-04-29T05:06:44;0.20;;;0.20;;
11191;SDS011;5652;48.406;10.820;2023-04-29T05:09:11;0.57;;;0.57;;
11191;SDS011;5652;48.406;10.820;2023-04-29T05:11:38;0.30;;;0.30;;
11191;SDS011;5652;48.406;10.820;2023-04-29T05:14:06;0.50;;;0.50;;
11191;SDS011;5652;48.406;10.820;2023-04-29T05:16:33;0.28;;;0.28;;
11191;SDS011;5652;48.406;10.820;2023-04-29T05:19:00;1.07;;;0.83;;
11191;SDS011;5652;48.406;10.820;2023-04-29T05:21:27;0.35;;;0.35;;
11191;SDS011;5652;48.406;10.820;2023-04-29T05:23:55;0.50;;;0.50;;
11191;SDS011;5652;48.406;10.820;2023-04-29T05:26:22;0.60;;;0.60;;
11191;SDS011;5652;48.406;10.820;2023-04-29T05:28:49;0.60;;;0.60;;
11191;SDS011;5652;48.406;10.820;2023-04-29T05:31:16;0.28;;;0.28;;
11191;SDS011;5652;48.406;10.820;2023-04-29T05:33:43;0.65;;;0.65;;
11191;SDS011;5652;48.406;10.820;2023-04-29T05:36:11;0.40;;;0.40;;
11191;SDS011;5652;48.406;10.820;2023-04-29T05:38:38;0.52;;;0.52;;
11191;SDS011;5652;48.406;10.820;2023-04-29T05:41:07;3.10;;;1.00;;
11191;SDS011;5652;48.406;10.820;2023-04-29T05:43:34;0.45;;;0.45;;
11191;SDS011;5652;48.406;10.820;2023-04-29T05:46:01;0.30;;;0.30;;
11191;SDS011;5652;48.406;10.820;2023-04-29T05:48:28;0.30;;;0.30;;
11191;SDS011;5652;48.406;10.820;2023-04-29T05:50:55;0.30;;;0.30;;
11191;SDS011;5652;48.406;10.820;2023-04-29T05:53:22;0.40;;;0.40;;
11191;SDS011;5652;48.406;10.820;2023-04-29T05:55:49;0.50;;;0.50;;
11191;SDS011;5652;48.406;10.820;2023-04-29T05:58:18;1.00;;;0.60;;
11191;SDS011;5652;48.406;10.820;2023-04-29T06:00:45;0.20;;;0.20;;
11191;SDS011;5652;48.406;10.820;2023-04-29T06:03:13;0.60;;;0.60;;
11191;SDS011;5652;48.406;10.820;2023-04-29T06:05:40;0.40;;;0.40;;
11191;SDS011;5652;48.406;10.820;2023-04-29T06:08:07;0.30;;;0.30;;
11191;SDS011;5652;48.406;10.820;2023-04-29T06:10:35;0.40;;;0.40;;
11191;SDS011;5652;48.406;10.820;2023-04-29T06:13:02;0.30;;;0.30;;
11191;SDS011;5652;48.406;10.820;2023-04-29T06:15:30;0.60;;;0.50;;
11191;SDS011;5652;48.406;10.820;2023-04-29T06:17:58;7.82;;;5.82;;
11191;SDS011;5652;48.406;10.820;2023-04-29T06:20:25;5.75;;;4.22;;
11191;SDS011;5652;48.406;10.820;2023-04-29T06:22:52;5.07;;;4.28;;
11191;SDS011;5652;48.406;10.820;2023-04-29T06:25:19;5.32;;;4.38;;
11191;SDS011;5652;48.406;10.820;2023-04-29T06:27:46;4.93;;;3.80;;
11191;SDS011;5652;48.406;10.820;2023-04-29T06:30:14;5.95;;;3.60;;
11191;SDS011;5652;48.406;10.820;2023-04-29T06:32:43;4.15;;;3.67;;
11191;SDS011;5652;48.406;10.820;2023-04-29T06:35:10;3.65;;;3.05;;
11191;SDS011;5652;48.406;10.820;2023-04-29T06:37:37;3.97;;;3.30;;
11191;SDS011;5652;48.406;10.820;2023-04-29T06:40:04;3.63;;;3.13;;
11191;SDS011;5652;48.406;10.820;2023-04-29T06:42:32;3.40;;;3.00;;
11191;SDS011;5652;48.406;10.820;2023-04-29T06:44:59;5.13;;;3.55;;
11191;SDS011;5652;48.406;10.820;2023-04-29T06:47:26;3.67;;;3.13;;
11191;SDS011;5652;48.406;10.820;2023-04-29T06:49:54;7.25;;;3.53;;
11191;SDS011;5652;48.406;10.820;2023-04-29T06:52:22;3.92;;;3.28;;
11191;SDS011;5652;48.406;10.820;2023-04-29T06:54:49;3.75;;;3.13;;
11191;SDS011;5652;48.406;10.820;2023-04-29T06:57:16;3.72;;;3.20;;
11191;SDS011;5652;48.406;10.820;2023-04-29T06:59:44;4.78;;;3.28;;
11191;SDS011;5652;48.406;10.820;2023-04-29T07:02:11;4.15;;;2.80;;
11191;SDS011;5652;48.406;10.820;2023-04-29T07:04:38;3.95;;;2.63;;
11191;SDS011;5652;48.406;10.820;2023-04-29T07:07:07;3.03;;;2.42;;
11191;SDS011;5652;48.406;10.820;2023-04-29T07:09:34;4.97;;;3.10;;
11191;SDS011;5652;48.406;10.820;2023-04-29T07:12:01;3.47;;;2.85;;
11191;SDS011;5652;48.406;10.820;2023-04-29T07:14:28;2.45;;;2.25;;
11191;SDS011;5652;48.406;10.820;2023-04-29T07:16:56;4.28;;;2.97;;
11191;SDS011;5652;48.406;10.820;2023-04-29T07:19:23;3.13;;;2.65;;
11191;SDS011;5652;48.406;10.820;2023-04-29T07:21:50;4.35;;;3.25;;
11191;SDS011;5652;48.406;10.820;2023-04-29T07:24:18;3.33;;;2.90;;
11191;SDS011;5652;48.406;10.820;2023-04-29T07:26:47;2.88;;;2.58;;
11191;SDS011;5652;48.406;10.820;2023-04-29T07:29:14;3.35;;;2.53;;
11191;SDS011;5652;48.406;10.820;2023-04-29T07:31:41;3.33;;;2.50;;
11191;SDS011;5652;48.406;10.820;2023-04-29T07:34:08;3.63;;;1.80;;
11191;SDS011;5652;48.406;10.820;2023-04-29T07:36:36;2.90;;;2.10;;
11191;SDS011;5652;48.406;10.820;2023-04-29T07:39:03;2.65;;;2.40;;
11191;SDS011;5652;48.406;10.820;2023-04-29T07:41:32;2.80;;;2.00;;
11191;SDS011;5652;48.406;10.820;2023-04-29T07:43:59;3.33;;;2.17;;
11191;SDS011;5652;48.406;10.820;2023-04-29T07:46:26;3.30;;;1.95;;
11191;SDS011;5652;48.406;10.820;2023-04-29T07:48:53;2.95;;;2.40;;
11191;SDS011;5652;48.406;10.820;2023-04-29T07:51:20;5.13;;;2.25;;
11191;SDS011;5652;48.406;10.820;2023-04-29T07:53:47;2.33;;;2.13;;
11191;SDS011;5652;48.406;10.820;2023-04-29T07:56:14;2.30;;;2.10;;
11191;SDS011;5652;48.406;10.820;2023-04-29T07:58:44;2.75;;;2.00;;
11191;SDS011;5652;48.406;10.820;2023-04-29T08:01:11;2.10;;;1.90;;
11191;SDS011;5652;48.406;10.820;2023-04-29T08:03:39;2.47;;;1.80;;
11191;SDS011;5652;48.406;10.820;2023-04-29T08:06:06;2.50;;;1.90;;
11191;SDS011;5652;48.406;10.820;2023-04-29T08:08:34;2.08;;;1.88;;
11191;SDS011;5652;48.406;10.820;2023-04-29T08:11:01;2.67;;;2.10;;
11191;SDS011;5652;48.406;10.820;2023-04-29T08:13:28;1.88;;;1.55;;
11191;SDS011;5652;48.406;10.820;2023-04-29T08:15:57;1.88;;;1.50;;
11191;SDS011;5652;48.406;10.820;2023-04-29T08:18:24;1.83;;;1.40;;
11191;SDS011;5652;48.406;10.820;2023-04-29T08:20:51;2.47;;;1.70;;
11191;SDS011;5652;48.406;10.820;2023-04-29T08:23:19;2.50;;;1.90;;
11191;SDS011;5652;48.406;10.820;2023-04-29T08:25:46;2.42;;;1.90;;
11191;SDS011;5652;48.406;10.820;2023-04-29T08:28:15;2.83;;;2.40;;
11191;SDS011;5652;48.406;10.820;2023-04-29T08:30:43;2.63;;;2.20;;
11191;SDS011;5652;48.406;10.820;2023-04-29T08:33:12;3.17;;;2.80;;
11191;SDS011;5652;48.406;10.820;2023-04-29T08:35:39;3.53;;;2.60;;
11191;SDS011;5652;48.406;10.820;2023-04-29T08:38:07;5.22;;;2.75;;
11191;SDS011;5652;48.406;10.820;2023-04-29T08:40:34;4.72;;;2.58;;
11191;SDS011;5652;48.406;10.820;2023-04-29T08:43:02;3.85;;;2.55;;
11191;SDS011;5652;48.406;10.820;2023-04-29T08:45:29;2.50;;;2.08;;
11191;SDS011;5652;48.406;10.820;2023-04-29T08:47:57;2.47;;;2.00;;
11191;SDS011;5652;48.406;10.820;2023-04-29T08:50:26;2.35;;;1.77;;
11191;SDS011;5652;48.406;10.820;2023-04-29T08:52:53;3.35;;;2.05;;
11191;SDS011;5652;48.406;10.820;2023-04-29T08:55:21;3.17;;;1.90;;
11191;SDS011;5652;48.406;10.820;2023-04-29T08:57:48;1.80;;;1.50;;
11191;SDS011;5652;48.406;10.820;2023-04-29T09:00:16;2.20;;;1.60;;
11191;SDS011;5652;48.406;10.820;2023-04-29T09:02:44;2.53;;;1.60;;
11191;SDS011;5652;48.406;10.820;2023-04-29T09:05:12;1.73;;;1.60;;
11191;SDS011;5652;48.406;10.820;2023-04-29T09:07:41;2.00;;;1.50;;
11191;SDS011;5652;48.406;10.820;2023-04-29T09:10:09;2.17;;;1.47;;
11191;SDS011;5652;48.406;10.820;2023-04-29T09:12:37;2.42;;;1.63;;
11191;SDS011;5652;48.406;10.820;2023-04-29T09:15:04;1.80;;;1.40;;
11191;SDS011;5652;48.406;10.820;2023-04-29T09:17:41;3.40;;;1.80;;
11191;SDS011;5652;48.406;10.820;2023-04-29T09:20:30;1.60;;;1.30;;
11191;SDS011;5652;48.406;10.820;2023-04-29T09:22:59;0.95;;;0.95;;
11191;SDS011;5652;48.406;10.820;2023-04-29T09:25:27;1.30;;;1.20;;
11191;SDS011;5652;48.406;10.820;2023-04-29T09:27:55;1.92;;;1.38;;
11191;SDS011;5652;48.406;10.820;2023-04-29T09:30:23;1.60;;;1.45;;
11191;SDS011;5652;48.406;10.820;2023-04-29T09:33:03;2.20;;;1.35;;
11191;SDS011;5652;48.406;10.820;2023-04-29T09:35:31;1.75;;;1.35;;
11191;SDS011;5652;48.406;10.820;2023-04-29T09:38:08;1.60;;;1.27;;
11191;SDS011;5652;48.406;10.820;2023-04-29T09:40:35;2.70;;;1.25;;
11191;SDS011;5652;48.406;10.820;2023-04-29T09:43:02;1.80;;;1.20;;
11191;SDS011;5652;48.406;10.820;2023-04-29T09:45:38;3.47;;;1.40;;
11191;SDS011;5652;48.406;10.820;2023-04-29T09:48:06;1.92;;;1.23;;
11191;SDS011;5652;48.406;10.820;2023-04-29T09:50:34;1.63;;;1.13;;
11191;SDS011;5652;48.406;10.820;2023-04-29T09:53:02;1.37;;;1.27;;
11191;SDS011;5652;48.406;10.820;2023-04-29T09:55:30;1.20;;;1.10;;
11191;SDS011;5652;48.406;10.820;2023-04-29T09:57:57;2.17;;;1.30;;
11191;SDS011;5652;48.406;10.820;2023-04-29T10:00:25;1.20;;;1.10;;
11191;SDS011;5652;48.406;10.820;2023-04-29T10:02:55;1.15;;;1.05;;
11191;SDS011;5652;48.406;10.820;2023-04-29T10:05:24;2.40;;;1.30;;
11191;SDS011;5652;48.406;10.820;2023-04-29T10:07:53;1.30;;;1.10;;
11191;SDS011;5652;48.406;10.820;2023-04-29T10:10:21;1.38;;;1.00;;
11191;SDS011;5652;48.406;10.820;2023-04-29T10:12:51;1.30;;;1.15;;
11191;SDS011;5652;48.406;10.820;2023-04-29T10:15:19;2.15;;;1.20;;
11191;SDS011;5652;48.406;10.820;2023-04-29T10:17:49;1.25;;;1.10;;
11191;SDS011;5652;48.406;10.820;2023-04-29T10:20:21;2.50;;;1.10;;
11191;SDS011;5652;48.406;10.820;2023-04-29T10:22:48;2.22;;;1.10;;
11191;SDS011;5652;48.406;10.820;2023-04-29T10:25:16;1.13;;;1.02;;
11191;SDS011;5652;48.406;10.820;2023-04-29T10:27:44;1.30;;;1.20;;
11191;SDS011;5652;48.406;10.820;2023-04-29T10:30:12;1.25;;;1.10;;
11191;SDS011;5652;48.406;10.820;2023-04-29T10:32:40;2.30;;;1.50;;
11191;SDS011;5652;48.406;10.820;2023-04-29T10:35:08;1.77;;;1.23;;
11191;SDS011;5652;48.406;10.820;2023-04-29T10:37:35;1.43;;;1.10;;
11191;SDS011;5652;48.406;10.820;2023-04-29T10:40:06;1.40;;;1.30;;
11191;SDS011;5652;48.406;10.820;2023-04-29T10:42:36;1.43;;;1.27;;
11191;SDS011;5652;48.406;10.820;2023-04-29T10:45:17;1.88;;;1.30;;
11191;SDS011;5652;48.406;10.820;2023-04-29T10:50:27;1.20;;;1.00;;
11191;SDS011;5652;48.406;10.820;2023-04-29T10:52:54;1.05;;;1.00;;
11191;SDS011;5652;48.406;10.820;2023-04-29T10:55:21;1.00;;;0.95;;
11191;SDS011;5652;48.406;10.820;2023-04-29T10:57:48;1.20;;;1.10;;
11191;SDS011;5652;48.406;10.820;2023-04-29T11:00:21;1.02;;;1.00;;
11191;SDS011;5652;48.406;10.820;2023-04-29T11:02:49;1.52;;;1.08;;
11191;SDS011;5652;48.406;10.820;2023-04-29T11:05:17;2.72;;;1.10;;
11191;SDS011;5652;48.406;10.820;2023-04-29T11:08:07;1.27;;;1.10;;
11191;SDS011;5652;48.406;10.820;2023-04-29T11:10:35;1.92;;;1.00;;
11191;SDS011;5652;48.406;10.820;2023-04-29T11:13:20;0.90;;;0.90;;
11191;SDS011;5652;48.406;10.820;2023-04-29T11:15:49;1.15;;;1.00;;
11191;SDS011;5652;48.406;10.820;2023-04-29T11:18:16;1.80;;;1.00;;
11191;SDS011;5652;48.406;10.820;2023-04-29T11:23:29;1.80;;;1.00;;
11191;SDS011;5652;48.406;10.820;2023-04-29T11:25:57;1.50;;;0.95;;
11191;SDS011;5652;48.406;10.820;2023-04-29T11:28:24;1.15;;;0.80;;
11191;SDS011;5652;48.406;10.820;2023-04-29T11:30:54;0.77;;;0.77;;
11191;SDS011;5652;48.406;10.820;2023-04-29T11:33:22;0.75;;;0.70;;
11191;SDS011;5652;48.406;10.820;2023-04-29T11:35:51;1.48;;;1.02;;
11191;SDS011;5652;48.406;10.820;2023-04-29T11:38:22;0.80;;;0.80;;
11191;SDS011;5652;48.406;10.820;2023-04-29T11:40:49;3.25;;;1.13;;
11191;SDS011;5652;48.406;10.820;2023-04-29T11:43:17;1.10;;;0.77;;
11191;SDS011;5652;48.406;10.820;2023-04-29T11:45:44;1.00;;;0.90;;
11191;SDS011;5652;48.406;10.820;2023-04-29T11:48:17;2.97;;;1.15;;
11191;SDS011;5652;48.406;10.820;2023-04-29T11:50:44;0.80;;;0.80;;
11191;SDS011;5652;48.406;10.820;2023-04-29T11:53:12;1.13;;;0.88;;
11191;SDS011;5652;48.406;10.820;2023-04-29T11:55:40;0.80;;;0.80;;
11191;SDS011;5652;48.406;10.820;2023-04-29T11:58:08;1.00;;;0.90;;
11191;SDS011;5652;48.406;10.820;2023-04-29T12:00:35;2.63;;;0.82;;
11191;SDS011;5652;48.406;10.820;2023-04-29T12:03:06;0.70;;;0.70;;
11191;SDS011;5652;48.406;10.820;2023-04-29T12:05:35;1.20;;;0.90;;
11191;SDS011;5652;48.406;10.820;2023-04-29T12:08:02;0.80;;;0.80;;
11191;SDS011;5652;48.406;10.820;2023-04-29T12:10:29;0.80;;;0.80;;
11191;SDS011;5652;48.406;10.820;2023-04-29T12:12:56;1.25;;;0.80;;
11191;SDS011;5652;48.406;10.820;2023-04-29T12:15:24;0.85;;;0.85;;
11191;SDS011;5652;48.406;10.820;2023-04-29T12:17:53;0.93;;;0.90;;
11191;SDS011;5652;48.406;10.820;2023-04-29T12:20:20;1.10;;;1.00;;
11191;SDS011;5652;48.406;10.820;2023-04-29T12:22:49;1.00;;;0.95;;
11191;SDS011;5652;48.406;10.820;2023-04-29T12:25:16;1.00;;;0.82;;
11191;SDS011;5652;48.406;10.820;2023-04-29T12:27:44;1.13;;;1.02;;
11191;SDS011;5652;48.406;10.820;2023-04-29T12:30:11;1.17;;;1.00;;
11191;SDS011;5652;48.406;10.820;2023-04-29T12:32:39;1.08;;;0.90;;
11191;SDS011;5652;48.406;10.820;2023-04-29T12:35:13;1.00;;;0.90;;
11191;SDS011;5652;48.406;10.820;2023-04-29T12:37:41;1.47;;;0.90;;
11191;SDS011;5652;48.406;10.820;2023-04-29T12:40:13;1.10;;;1.00;;
11191;SDS011;5652;48.406;10.820;2023-04-29T12:42:41;1.70;;;1.00;;
11191;SDS011;5652;48.406;10.820;2023-04-29T12:45:24;1.60;;;1.00;;
11191;SDS011;5652;48.406;10.820;2023-04-29T12:47:51;1.40;;;0.88;;
11191;SDS011;5652;48.406;10.820;2023-04-29T12:50:19;2.58;;;0.90;;
11191;SDS011;5652;48.406;10.820;2023-04-29T12:52:46;0.82;;;0.82;;
11191;SDS011;5652;48.406;10.820;2023-04-29T12:55:15;1.23;;;0.83;;
11191;SDS011;5652;48.406;10.820;2023-04-29T12:57:56;0.80;;;0.80;;
11191;SDS011;5652;48.406;10.820;2023-04-29T13:00:36;1.60;;;1.00;;
11191;SDS011;5652;48.406;10.820;2023-04-29T13:03:03;0.80;;;0.80;;
11191;SDS011;5652;48.406;10.820;2023-04-29T13:05:31;1.45;;;1.00;;
11191;SDS011;5652;48.406;10.820;2023-04-29T13:08:00;1.15;;;0.82;;
11191;SDS011;5652;48.406;10.820;2023-04-29T13:10:28;1.00;;;0.80;;
11191;SDS011;5652;48.406;10.820;2023-04-29T13:12:55;0.85;;;0.73;;
11191;SDS011;5652;48.406;10.820;2023-04-29T13:15:26;0.80;;;0.80;;
11191;SDS011;5652;48.406;10.820;2023-04-29T13:17:54;2.03;;;0.90;;
11191;SDS011;5652;48.406;10.820;2023-04-29T13:20:22;1.15;;;0.85;;
11191;SDS011;5652;48.406;10.820;2023-04-29T13:22:50;0.80;;;0.80;;
11191;SDS011;5652;48.406;10.820;2023-04-29T13:25:17;0.70;;;0.70;;
11191;SDS011;5652;48.406;10.820;2023-04-29T13:27:45;1.30;;;0.80;;
11191;SDS011;5652;48.406;10.820;2023-04-29T13:30:13;1.13;;;0.80;;
11191;SDS011;5652;48.406;10.820;2023-04-29T13:32:41;1.85;;;1.00;;
11191;SDS011;5652;48.406;10.820;2023-04-29T13:35:08;1.70;;;1.00;;
11191;SDS011;5652;48.406;10.820;2023-04-29T13:37:36;1.92;;;0.80;;
11191;SDS011;5652;48.406;10.820;2023-04-29T13:40:03;1.15;;;0.80;;
11191;SDS011;5652;48.406;10.820;2023-04-29T13:42:31;1.00;;;0.80;;
11191;SDS011;5652;48.406;10.820;2023-04-29T13:44:59;1.70;;;0.90;;
11191;SDS011;5652;48.406;10.820;2023-04-29T13:47:27;0.75;;;0.75;;
11191;SDS011;5652;48.406;10.820;2023-04-29T13:49:55;1.05;;;0.70;;
11191;SDS011;5652;48.406;10.820;2023-04-29T13:52:22;1.45;;;0.80;;
11191;SDS011;5652;48.406;10.820;2023-04-29T13:54:49;0.82;;;0.80;;
11191;SDS011;5652;48.406;10.820;2023-04-29T13:57:17;0.85;;;0.85;;
11191;SDS011;5652;48.406;10.820;2023-04-29T13:59:44;0.90;;;0.90;;
11191;SDS011;5652;48.406;10.820;2023-04-29T14:02:13;0.85;;;0.80;;
11191;SDS011;5652;48.406;10.820;2023-04-29T14:04:40;1.90;;;1.00;;
11191;SDS011;5652;48.406;10.820;2023-04-29T14:07:07;1.15;;;1.05;;
11191;SDS011;5652;48.406;10.820;2023-04-29T14:09:34;1.67;;;0.98;;
11191;SDS011;5652;48.406;10.820;2023-04-29T14:12:01;1.52;;;1.00;;
11191;SDS011;5652;48.406;10.820;2023-04-29T14:14:28;1.45;;;1.08;;
11191;SDS011;5652;48.406;10.820;2023-04-29T14:16:56;1.10;;;1.00;;
11191;SDS011;5652;48.406;10.820;2023-04-29T14:19:24;1.45;;;0.90;;
11191;SDS011;5652;48.406;10.820;2023-04-29T14:21:51;0.90;;;0.90;;
11191;SDS011;5652;48.406;10.820;2023-04-29T14:24:19;0.80;;;0.80;;
11191;SDS011;5652;48.406;10.820;2023-04-29T14:26:46;1.48;;;1.02;;
11191;SDS011;5652;48.406;10.820;2023-04-29T14:29:13;1.70;;;1.20;;
11191;SDS011;5652;48.406;10.820;2023-04-29T14:31:40;1.30;;;1.20;;
11191;SDS011;5652;48.406;10.820;2023-04-29T14:34:08;2.70;;;1.00;;
11191;SDS011;5652;48.406;10.820;2023-04-29T14:36:36;1.73;;;1.30;;
11191;SDS011;5652;48.406;10.820;2023-04-29T14:39:03;1.75;;;1.30;;
11191;SDS011;5652;48.406;10.820;2023-04-29T14:41:30;1.10;;;1.00;;
11191;SDS011;5652;48.406;10.820;2023-04-29T14:43:57;3.00;;;1.23;;
11191;SDS011;5652;48.406;10.820;2023-04-29T14:46:25;1.23;;;1.13;;
11191;SDS011;5652;48.406;10.820;2023-04-29T14:48:52;1.35;;;1.20;;
11191;SDS011;5652;48.406;10.820;2023-04-29T14:51:20;1.27;;;1.17;;
11191;SDS011;5652;48.406;10.820;2023-04-29T14:53:48;2.05;;;1.23;;
11191;SDS011;5652;48.406;10.820;2023-04-29T14:56:15;1.20;;;1.10;;
11191;SDS011;5652;48.406;10.820;2023-04-29T14:58:43;2.42;;;1.30;;